Terminal Aerodrome Forecast
Issued by NWS

Home | Current Version | Previous Version | Text Only | Print | Product List | Glossary On
Versions: 1 2 3 4 5 6 7 8 9 10 11 12
000
FTUS45 KRIW 222300
TAFCOD
TAF
KCOD 222332Z 2300/2324 35010G17KT P6SM VCSH FEW018 BKN050 BKN100
      TEMPO 2300/2302 2SM -SN SCT012 BKN025 OVC050
     FM231000 27008KT P6SM SCT100
      AMD LTD TO CLD VIS AND WIND=

USA.gov is the U.S. government's official web portal to all federal, state and local government web resources and services.